createdAt,value
2017-07-27T00:01:33.021Z,75.76
2017-07-27T00:03:56.957Z,76.34
2017-07-27T00:06:20.967Z,76.63
2017-07-27T00:08:46.900Z,76.82
2017-07-27T00:11:10.896Z,77.11
2017-07-27T00:13:34.797Z,77.01
2017-07-27T00:15:58.784Z,76.82
2017-07-27T00:18:30.595Z,77.4
2017-07-27T00:20:54.575Z,77.08
2017-07-27T00:23:18.532Z,77.21
2017-07-27T00:25:42.460Z,77.56
2017-07-27T00:28:05.630Z,77.5
2017-07-27T00:30:29.595Z,77.84
2017-07-27T00:33:02.577Z,77.84
2017-07-27T00:35:26.557Z,77.84
2017-07-27T00:39:26.709Z,78.27
2017-07-27T00:41:50.701Z,78.03
2017-07-27T00:44:14.758Z,77.98
2017-07-27T00:46:38.725Z,77.98
2017-07-27T00:49:02.669Z,77.88
2017-07-27T00:51:26.687Z,77.88
2017-07-27T00:53:50.655Z,78.08
2017-07-27T00:57:50.824Z,77.88
2017-07-27T01:00:01.187Z,79
2017-07-27T01:02:12.571Z,78.27
2017-07-27T01:04:36.574Z,77.98
2017-07-27T01:07:00.507Z,78.46
2017-07-27T01:09:24.478Z,77.98
2017-07-27T01:11:48.405Z,78.46
2017-07-27T01:14:12.315Z,78.36
2017-07-27T01:16:36.301Z,77.59
2017-07-27T01:19:00.244Z,77.92
2017-07-27T01:21:30.930Z,77.73
2017-07-27T01:23:54.827Z,77.63
2017-07-27T01:26:18.817Z,77.83
2017-07-27T01:28:58.402Z,77.63
2017-07-27T01:31:22.400Z,77.63
2017-07-27T01:33:46.381Z,77.83
2017-07-27T01:36:10.366Z,77.44
2017-07-27T01:38:34.318Z,77.88
2017-07-27T01:42:34.441Z,77.73
2017-07-27T01:44:58.434Z,77.98
2017-07-27T01:47:22.369Z,77.88
2017-07-27T01:49:46.363Z,77.92
2017-07-27T01:51:47.701Z,77.78
2017-07-27T01:54:11.690Z,77.88
2017-07-27T01:56:35.671Z,77.92
2017-07-27T01:58:59.649Z,77.73
2017-07-27T02:01:25.647Z,77.78
2017-07-27T02:05:26.196Z,77.63
2017-07-27T02:07:50.418Z,78.36
2017-07-27T02:10:14.381Z,77.92
2017-07-27T02:12:46.171Z,77.92
2017-07-27T02:16:46.419Z,77.83
2017-07-27T02:19:10.420Z,77.83
2017-07-27T02:21:12.239Z,78.02
2017-07-27T02:23:36.270Z,78.98
2017-07-27T02:26:00.254Z,78.31
2017-07-27T02:28:24.253Z,79.66
2017-07-27T02:30:48.282Z,80.71
2017-07-27T02:33:03.855Z,81.01
2017-07-27T02:35:27.849Z,81.01
2017-07-27T02:37:51.907Z,81.35
2017-07-27T02:40:16.843Z,82.21
2017-07-27T02:42:55.600Z,83.18
2017-07-27T02:45:19.634Z,84.23
2017-07-27T02:49:20.602Z,86.02
2017-07-27T02:51:44.646Z,86.22
2017-07-27T02:54:08.615Z,87.81
2017-07-27T02:56:32.605Z,88.48
2017-07-27T02:58:48.149Z,89.54
2017-07-27T03:01:03.679Z,91.99
2017-07-27T03:03:27.639Z,91.56
2017-07-27T03:05:43.138Z,92.04
2017-07-27T03:08:07.086Z,93
2017-07-27T03:10:30.169Z,93.38
2017-07-27T03:14:30.294Z,94.35
2017-07-27T03:16:45.835Z,94.45
2017-07-27T03:19:09.778Z,95.79
2017-07-27T03:21:33.704Z,96.7
2017-07-27T03:24:05.617Z,97.76
2017-07-27T03:26:29.507Z,98.05
2017-07-27T03:28:53.404Z,98.72
2017-07-27T03:32:45.099Z,99.11
2017-07-27T03:35:09.076Z,98.68
2017-07-27T03:37:32.989Z,98.77
2017-07-27T03:41:24.183Z,99.73
2017-07-27T03:43:39.645Z,99.99
2017-07-27T03:45:55.091Z,99.99
2017-07-27T03:48:19.126Z,99.99
2017-07-27T03:50:34.553Z,99.99
2017-07-27T03:52:58.440Z,99.99
2017-07-27T03:55:28.990Z,99.99
2017-07-27T03:57:52.836Z,99.99
2017-07-27T04:00:17.754Z,99.99
2017-07-27T04:02:41.663Z,99.99
2017-07-27T04:05:05.566Z,99.99
2017-07-27T04:09:05.676Z,99.99
2017-07-27T04:11:29.666Z,99.99
2017-07-27T04:13:53.530Z,99.99
2017-07-27T04:16:17.441Z,99.99
2017-07-27T04:18:41.334Z,99.99
2017-07-27T04:20:56.801Z,99.99
2017-07-27T04:23:20.737Z,99.99
2017-07-27T04:27:37.897Z,99.99
2017-07-27T04:29:53.437Z,99.99
2017-07-27T04:32:17.444Z,99.99
2017-07-27T04:34:19.260Z,99.99
2017-07-27T04:36:43.241Z,99.99
2017-07-27T04:39:07.221Z,99.99
2017-07-27T04:41:31.135Z,99.99
2017-07-27T04:45:31.320Z,99.99
2017-07-27T04:47:55.253Z,99.99
2017-07-27T04:50:19.181Z,99.99
2017-07-27T04:52:43.113Z,99.99
2017-07-27T04:55:07.071Z,99.99
2017-07-27T04:57:22.586Z,99.99
2017-07-27T04:59:46.458Z,99.99
2017-07-27T05:02:27.140Z,99.99
2017-07-27T05:04:51.069Z,99.99
2017-07-27T05:07:14.954Z,99.99
2017-07-27T05:09:30.460Z,99.99
2017-07-27T05:11:54.366Z,99.99
2017-07-27T05:14:18.316Z,99.99
2017-07-27T05:16:20.148Z,99.99
2017-07-27T05:18:44.101Z,99.99
2017-07-27T05:20:59.564Z,99.99
2017-07-27T05:23:23.482Z,99.99
2017-07-27T05:25:47.431Z,99.99
2017-07-27T05:27:48.833Z,99.99
2017-07-27T05:30:12.764Z,99.99
2017-07-27T05:32:36.741Z,99.99
2017-07-27T05:35:00.669Z,99.99
2017-07-27T05:37:24.653Z,99.99
2017-07-27T05:39:48.566Z,99.99
2017-07-27T05:42:12.433Z,99.99
2017-07-27T05:44:36.404Z,99.99
2017-07-27T05:48:36.623Z,99.99
2017-07-27T05:50:52.122Z,99.99
2017-07-27T05:53:16.093Z,99.99
2017-07-27T05:57:16.349Z,99.99
2017-07-27T05:59:31.885Z,99.99
2017-07-27T06:01:55.871Z,99.99
2017-07-27T06:04:11.434Z,99.99
2017-07-27T06:06:21.838Z,99.99
2017-07-27T06:08:45.852Z,99.99
2017-07-27T06:11:18.644Z,99.99
2017-07-27T06:13:42.618Z,99.99
2017-07-27T06:16:06.564Z,99.99
2017-07-27T06:18:30.506Z,99.99
2017-07-27T06:20:54.481Z,99.99
2017-07-27T06:23:18.463Z,99.99
2017-07-27T06:25:42.418Z,99.99
2017-07-27T06:28:06.404Z,99.99
2017-07-27T06:30:30.396Z,99.99
2017-07-27T06:32:54.364Z,99.99
2017-07-27T06:35:18.368Z,99.99
2017-07-27T06:37:42.331Z,99.99
2017-07-27T06:40:06.351Z,99.99
2017-07-27T06:42:30.346Z,99.99
2017-07-27T06:44:55.332Z,99.99
2017-07-27T06:47:19.229Z,99.99
2017-07-27T06:49:43.190Z,99.99
2017-07-27T06:51:53.005Z,99.99
2017-07-27T06:54:08.534Z,99.99
2017-07-27T06:56:32.463Z,99.99
2017-07-27T06:58:56.457Z,99.99
2017-07-27T07:01:20.436Z,99.99
2017-07-27T07:03:30.223Z,99.99
2017-07-27T07:05:45.792Z,99.99
2017-07-27T07:08:09.774Z,99.99
2017-07-27T07:10:33.756Z,99.99
2017-07-27T07:12:57.744Z,99.99
2017-07-27T07:15:21.792Z,99.99
2017-07-27T07:17:45.832Z,99.99
2017-07-27T07:20:09.892Z,99.99
2017-07-27T07:22:33.909Z,99.99
2017-07-27T07:24:57.986Z,99.99
2017-07-27T07:27:05.194Z,99.99
2017-07-27T07:29:29.292Z,99.99
2017-07-27T07:31:53.414Z,94.38
2017-07-27T07:34:17.560Z,89.01
2017-07-27T07:36:41.720Z,86.98
2017-07-27T07:39:05.970Z,91.05
2017-07-27T07:41:21.788Z,90.85
2017-07-27T07:43:37.561Z,88.96
2017-07-27T07:46:01.807Z,89.64
2017-07-27T07:48:26.068Z,87.99
2017-07-27T07:50:41.885Z,86.4
2017-07-27T07:53:07.176Z,85.91
2017-07-27T07:55:31.458Z,84.31
2017-07-27T07:57:55.832Z,83.83
2017-07-27T08:00:20.193Z,87.9
2017-07-27T08:02:44.532Z,89.98
2017-07-27T08:05:08.869Z,88.96
2017-07-27T08:07:33.226Z,88.63
2017-07-27T08:09:49.112Z,90.42
2017-07-27T08:12:13.412Z,89.21
2017-07-27T08:14:37.722Z,81.48
2017-07-27T08:17:02.073Z,80.32
2017-07-27T08:19:26.438Z,76.07
2017-07-27T08:21:42.409Z,73.39
2017-07-27T08:24:06.882Z,76.27
2017-07-27T08:26:22.919Z,75.94
2017-07-27T08:28:47.410Z,75.68
2017-07-27T08:31:11.849Z,76.29
2017-07-27T08:33:27.872Z,76.62
2017-07-27T08:35:52.337Z,75.45
2017-07-27T08:38:08.329Z,77.12
2017-07-27T08:40:32.831Z,73.9
2017-07-27T08:42:58.370Z,72.23
2017-07-27T08:45:14.437Z,73.26
2017-07-27T08:47:30.500Z,73.61
2017-07-27T08:49:55.082Z,75.81
2017-07-27T08:52:11.119Z,77.8
2017-07-27T08:54:35.614Z,78.25
2017-07-27T08:57:01.069Z,78.05
2017-07-27T08:59:17.048Z,77.61
2017-07-27T09:01:41.508Z,77.7
2017-07-27T09:04:05.927Z,80.15
2017-07-27T09:06:30.362Z,80.05
2017-07-27T09:08:54.728Z,80.54
2017-07-27T09:11:10.696Z,79.37
2017-07-27T09:13:26.602Z,79.5
2017-07-27T09:15:51.988Z,78.44
2017-07-27T09:18:16.373Z,79.57
2017-07-27T09:20:40.750Z,80.73
2017-07-27T09:23:05.128Z,79.66
2017-07-27T09:25:29.526Z,78.34
2017-07-27T09:27:45.480Z,76.83
2017-07-27T09:30:10.889Z,75.61
2017-07-27T09:32:35.236Z,74.93
2017-07-27T09:34:59.695Z,73.61
2017-07-27T09:37:15.665Z,74.74
2017-07-27T09:41:16.398Z,75.54
2017-07-27T09:43:40.921Z,75.09
2017-07-27T09:46:05.399Z,72.29
2017-07-27T09:48:29.873Z,72.83
2017-07-27T09:50:54.356Z,70.77
2017-07-27T09:53:10.420Z,70.25
2017-07-27T09:55:34.947Z,68.08
2017-07-27T09:57:51.011Z,67.31
2017-07-27T10:00:07.091Z,67.38
2017-07-27T10:02:14.713Z,66.69
2017-07-27T10:04:39.279Z,66.86
2017-07-27T10:07:03.876Z,65.98
2017-07-27T10:09:28.478Z,66.63
2017-07-27T10:11:21.522Z,69.38
2017-07-27T10:13:31.553Z,69.93
2017-07-27T10:15:56.183Z,67.76
2017-07-27T10:18:20.729Z,67.47
2017-07-27T10:20:45.314Z,64.26
2017-07-27T10:23:09.958Z,63.09
2017-07-27T10:25:34.579Z,63.06
2017-07-27T10:27:59.267Z,61.66
2017-07-27T10:30:23.938Z,60.49
2017-07-27T10:32:48.680Z,60.75
2017-07-27T10:35:13.454Z,59.88
2017-07-27T10:37:39.244Z,61.77
2017-07-27T10:40:04.009Z,62.51
2017-07-27T10:42:28.749Z,62.68
2017-07-27T10:44:45.012Z,62.84
2017-07-27T10:47:09.699Z,62.32
2017-07-27T10:49:34.404Z,61.6
2017-07-27T10:51:59.090Z,60.53
2017-07-27T10:54:06.848Z,60.85
2017-07-27T10:56:31.605Z,59.69
2017-07-27T10:58:56.321Z,60.53
2017-07-27T11:01:21.045Z,64.04
2017-07-27T11:03:45.718Z,66.76
2017-07-27T11:06:10.351Z,66.95
2017-07-27T11:08:34.973Z,69.06
2017-07-27T11:10:51.099Z,70.83
2017-07-27T11:13:15.634Z,71.37
2017-07-27T11:15:40.135Z,73.75
2017-07-27T11:18:04.544Z,74.24
2017-07-27T11:20:29.018Z,74.18
2017-07-27T11:22:53.436Z,73.41
2017-07-27T11:25:17.849Z,73.21
2017-07-27T11:27:35.763Z,74.82
2017-07-27T11:29:37.774Z,75.56
2017-07-27T11:32:02.141Z,76.39
2017-07-27T11:34:18.041Z,77.11
2017-07-27T11:36:42.389Z,77.17
2017-07-27T11:39:06.719Z,76.33
2017-07-27T11:41:31.042Z,76.72
2017-07-27T11:43:55.332Z,75.24
2017-07-27T11:46:11.235Z,71.86
2017-07-27T11:48:27.167Z,70.06
2017-07-27T11:50:51.599Z,69.02
2017-07-27T11:53:16.082Z,66.76
2017-07-27T11:55:40.579Z,70.41
2017-07-27T11:58:05.087Z,71.44
2017-07-27T12:00:12.645Z,70.96
2017-07-27T12:02:37.087Z,70.9
2017-07-27T12:04:53.089Z,70.31
2017-07-27T12:07:17.607Z,68.57
2017-07-27T12:09:42.155Z,67.89
2017-07-27T12:12:08.740Z,69.28
2017-07-27T12:14:33.323Z,69.02
2017-07-27T12:16:57.908Z,68.08
2017-07-27T12:19:07.991Z,67.15
2017-07-27T12:21:32.624Z,64.42
2017-07-27T12:23:57.272Z,63.75
2017-07-27T12:26:13.462Z,64.78
2017-07-27T12:28:29.650Z,63.84
2017-07-27T12:30:54.307Z,66.11
2017-07-27T12:33:18.996Z,67.6
2017-07-27T12:35:26.731Z,67.05
2017-07-27T12:37:51.372Z,64.69
2017-07-27T12:40:15.994Z,63.16
2017-07-27T12:42:40.640Z,63.45
2017-07-27T12:44:56.795Z,64.59
2017-07-27T12:47:12.997Z,63.65
2017-07-27T12:49:37.699Z,64.59
2017-07-27T12:52:02.371Z,65.37
2017-07-27T12:54:03.888Z,65.92
2017-07-27T12:56:28.590Z,65.33
2017-07-27T12:58:36.311Z,63.65
2017-07-27T13:01:00.967Z,63.65
2017-07-27T13:03:17.115Z,65.23
2017-07-27T13:05:41.776Z,66.27
2017-07-27T13:08:06.423Z,65.89
2017-07-27T13:10:22.618Z,68.08
2017-07-27T13:12:38.809Z,66.31
2017-07-27T13:14:54.992Z,66.79
2017-07-27T13:17:19.659Z,66.31
2017-07-27T13:19:44.274Z,66.76
2017-07-27T13:22:08.924Z,69.02
2017-07-27T13:24:33.591Z,69.22
2017-07-27T13:26:50.766Z,68.48
2017-07-27T13:28:58.446Z,67.93
2017-07-27T13:31:24.066Z,67.31
2017-07-27T13:33:42.158Z,67.38
2017-07-27T13:36:06.745Z,67.93
2017-07-27T13:38:31.345Z,66.69
2017-07-27T13:40:55.960Z,65.37
2017-07-27T13:43:12.071Z,64.98
2017-07-27T13:45:29.250Z,66.24
2017-07-27T13:47:53.866Z,64.81
2017-07-27T13:50:18.553Z,65.37
2017-07-27T13:52:43.223Z,66.4
2017-07-27T13:55:07.864Z,67.05
2017-07-27T13:57:32.494Z,65.92
2017-07-27T13:59:57.151Z,65.17
2017-07-27T14:02:21.786Z,64.69
2017-07-27T14:04:46.420Z,66.99
2017-07-27T14:07:11.057Z,66.05
2017-07-27T14:09:04.118Z,66.96
2017-07-27T14:11:28.801Z,68.87
2017-07-27T14:13:44.925Z,68.67
2017-07-27T14:16:09.538Z,69.41
2017-07-27T14:18:17.135Z,70.15
2017-07-27T14:20:33.226Z,69.02
2017-07-27T14:22:58.816Z,68.02
2017-07-27T14:25:23.412Z,67.11
2017-07-27T14:27:39.536Z,67.15
2017-07-27T14:30:04.114Z,66.72
2017-07-27T14:32:29.705Z,65.56
2017-07-27T14:34:54.323Z,65.01
2017-07-27T14:37:19.015Z,65.2
2017-07-27T14:39:45.658Z,65.3
2017-07-27T14:42:10.291Z,66.34
2017-07-27T14:44:35.944Z,65.2
2017-07-27T14:47:00.600Z,65.2
2017-07-27T14:49:25.217Z,66.72
2017-07-27T14:51:56.408Z,66.96
2017-07-27T14:54:12.574Z,67.02
2017-07-27T14:56:37.210Z,68.79
2017-07-27T14:59:01.826Z,71.7
2017-07-27T15:01:17.967Z,72.77
2017-07-27T15:05:09.893Z,72.33
2017-07-27T15:07:34.483Z,71.67
2017-07-27T15:09:50.578Z,72.09
2017-07-27T15:12:00.642Z,69.67
2017-07-27T15:14:02.115Z,69.32
2017-07-27T15:16:26.660Z,68.35
2017-07-27T15:18:42.733Z,67.76
2017-07-27T15:20:58.762Z,67.66
2017-07-27T15:23:23.307Z,67.28
2017-07-27T15:25:47.825Z,67.57
2017-07-27T15:28:12.344Z,66.72
2017-07-27T15:30:36.848Z,67.11
2017-07-27T15:32:52.932Z,67.02
2017-07-27T15:34:55.969Z,67.57
2017-07-27T15:37:13.851Z,67.7
2017-07-27T15:39:29.895Z,67.57
2017-07-27T15:41:54.438Z,67.76
2017-07-27T15:44:18.963Z,69.09
2017-07-27T15:46:26.586Z,67.66
2017-07-27T15:48:42.655Z,67.11
2017-07-27T15:50:58.723Z,67.86
2017-07-27T15:53:23.453Z,68.6
2017-07-27T15:55:47.872Z,68.89
2017-07-27T15:58:14.379Z,69.18
2017-07-27T16:00:38.905Z,69.67
2017-07-27T16:03:03.408Z,70.03
2017-07-27T16:06:46.843Z,69.48
2017-07-27T16:09:02.869Z,68.89
2017-07-27T16:11:27.360Z,68.89
2017-07-27T16:13:51.884Z,68.54
2017-07-27T16:16:01.927Z,67.57
2017-07-27T16:18:26.459Z,67.57
2017-07-27T16:22:26.839Z,68.6
2017-07-27T16:24:51.387Z,67.83
2017-07-27T16:27:15.866Z,68.21
2017-07-27T16:29:40.356Z,68.89
2017-07-27T16:32:06.859Z,69.06
2017-07-27T16:34:31.345Z,69.06
2017-07-27T16:36:56.824Z,69.31
2017-07-27T16:39:22.276Z,69.24
2017-07-27T16:41:54.588Z,69.89
2017-07-27T16:44:11.572Z,69.34
2017-07-27T16:46:37.016Z,69.93
2017-07-27T16:49:02.463Z,70.09
2017-07-27T16:51:18.413Z,69.34
2017-07-27T16:53:42.822Z,69.73
2017-07-27T16:56:07.658Z,69.93
2017-07-27T16:58:39.664Z,69.15
2017-07-27T17:00:41.062Z,69.73
2017-07-27T17:02:48.546Z,69.83
2017-07-27T17:05:12.972Z,70.31
2017-07-27T17:07:37.386Z,70.47
2017-07-27T17:10:01.827Z,70.76
2017-07-27T17:12:40.858Z,70.96
2017-07-27T17:15:05.279Z,71.54
2017-07-27T17:17:30.213Z,71.89
2017-07-27T17:19:54.016Z,72.12
2017-07-27T17:22:18.456Z,72.67
2017-07-27T17:24:42.879Z,73.15
2017-07-27T17:27:07.294Z,74.6
2017-07-27T17:29:31.702Z,74.9
2017-07-27T17:31:56.104Z,75.87
2017-07-27T17:34:20.457Z,76.79
2017-07-27T17:36:44.787Z,78.54
2017-07-27T17:39:09.219Z,77.67
2017-07-27T17:41:33.564Z,78.89
2017-07-27T17:43:58.007Z,79.24
2017-07-27T17:46:22.243Z,80.74
2017-07-27T17:48:46.620Z,81.81
2017-07-27T17:51:10.865Z,81.71
2017-07-27T17:53:35.207Z,83.31
2017-07-27T17:55:59.653Z,84.24
2017-07-27T17:58:23.915Z,85.49
2017-07-27T18:00:48.190Z,86.85
2017-07-27T18:03:12.486Z,89.75
2017-07-27T18:05:36.723Z,91.39
2017-07-27T18:08:01.000Z,90.13
2017-07-27T18:10:25.208Z,89.98
2017-07-27T18:12:49.400Z,89.31
2017-07-27T18:15:13.652Z,90.66
2017-07-27T18:17:38.485Z,90.47
2017-07-27T18:20:02.747Z,90.08
2017-07-27T18:22:27.125Z,91.97
2017-07-27T18:24:51.745Z,91.82
2017-07-27T18:27:15.913Z,90.75
2017-07-27T18:29:40.129Z,91.63
2017-07-27T18:32:04.490Z,91.43
2017-07-27T18:34:28.643Z,91.33
2017-07-27T18:38:28.800Z,93.95
2017-07-27T18:40:53.039Z,92.59
2017-07-27T18:43:17.305Z,93.75
2017-07-27T18:45:41.569Z,92.88
2017-07-27T18:48:05.815Z,92.88
2017-07-27T18:50:30.103Z,91.05
2017-07-27T18:52:54.371Z,90.7
2017-07-27T18:55:18.614Z,90.41
2017-07-27T18:57:42.920Z,91.28
2017-07-27T18:59:44.839Z,90.17
2017-07-27T19:02:00.641Z,89.83
2017-07-27T19:04:24.953Z,90.37
2017-07-27T19:06:49.177Z,90.61
2017-07-27T19:09:13.607Z,90.37
2017-07-27T19:11:37.843Z,91.05
2017-07-27T19:14:02.155Z,90.37
2017-07-27T19:16:26.534Z,89.98
2017-07-27T19:18:43.381Z,89.79
2017-07-27T19:21:07.615Z,88.92
2017-07-27T19:23:33.890Z,89.31
2017-07-27T19:25:58.085Z,90.56
2017-07-27T19:28:08.068Z,90.56
2017-07-27T19:30:23.910Z,92.25
2017-07-27T19:34:23.934Z,92.25
2017-07-27T19:36:48.152Z,92.35
2017-07-27T19:38:58.619Z,91.97
2017-07-27T19:41:22.954Z,91.72
2017-07-27T19:43:47.145Z,92.07
2017-07-27T19:46:11.389Z,91.87
2017-07-27T19:48:35.592Z,92.45
2017-07-27T19:50:59.741Z,93.23
2017-07-27T19:53:01.159Z,93.51
2017-07-27T19:55:16.886Z,94.67
2017-07-27T19:57:41.089Z,94.38
2017-07-27T20:00:13.000Z,95.35
2017-07-27T20:02:23.474Z,95.83
2017-07-27T20:04:34.063Z,94.87
2017-07-27T20:06:58.266Z,96.31
2017-07-27T20:09:22.431Z,97.33
2017-07-27T20:11:46.613Z,99.16
2017-07-27T20:14:02.365Z,99.99
2017-07-27T20:16:26.521Z,99.99
2017-07-27T20:18:33.823Z,99.99
2017-07-27T20:20:57.928Z,99.99
2017-07-27T20:23:22.291Z,99.99
2017-07-27T20:25:46.449Z,99.99
2017-07-27T20:28:11.695Z,99.99
2017-07-27T20:30:35.978Z,99.99
2017-07-27T20:32:46.460Z,99.99
2017-07-27T20:35:10.602Z,99.99
2017-07-27T20:37:34.733Z,99.99
2017-07-27T20:40:08.773Z,99.99
2017-07-27T20:42:34.233Z,99.99
2017-07-27T20:46:52.537Z,99.99
2017-07-27T20:49:16.628Z,99.99
2017-07-27T20:51:40.737Z,99.99
2017-07-27T20:54:04.855Z,99.99
2017-07-27T20:56:20.846Z,99.99
2017-07-27T20:58:44.811Z,99.99
2017-07-27T21:01:09.012Z,99.99
2017-07-27T21:03:24.657Z,99.99
2017-07-27T21:05:57.682Z,99.99
2017-07-27T21:08:21.791Z,99.99
2017-07-27T21:10:45.906Z,99.99
2017-07-27T21:13:18.734Z,99.99
2017-07-27T21:15:42.857Z,99.99
2017-07-27T21:17:58.502Z,99.99
2017-07-27T21:20:22.611Z,99.99
2017-07-27T21:22:53.730Z,99.99
2017-07-27T21:25:19.853Z,99.99
2017-07-27T21:27:35.541Z,99.99
2017-07-27T21:30:00.645Z,99.99
2017-07-27T21:32:26.780Z,99.99
2017-07-27T21:34:50.888Z,99.99
2017-07-27T21:37:14.979Z,99.99
2017-07-27T21:39:40.146Z,99.99
2017-07-27T21:41:55.885Z,99.99
2017-07-27T21:44:12.599Z,99.99
2017-07-27T21:46:45.636Z,99.99
2017-07-27T21:49:03.367Z,99.99
2017-07-27T21:51:27.438Z,99.99
2017-07-27T21:53:58.183Z,99.99
2017-07-27T21:56:13.870Z,99.99
2017-07-27T21:58:38.044Z,99.99
2017-07-27T22:01:08.699Z,99.99
2017-07-27T22:03:32.733Z,99.99
2017-07-27T22:05:56.855Z,99.99
2017-07-27T22:08:22.986Z,99.99
2017-07-27T22:10:47.166Z,99.99
2017-07-27T22:13:11.187Z,99.99
2017-07-27T22:15:35.284Z,99.99
2017-07-27T22:17:51.954Z,99.99
2017-07-27T22:20:17.139Z,99.99
2017-07-27T22:22:32.834Z,99.99
2017-07-27T22:24:48.422Z,99.99
2017-07-27T22:27:13.517Z,99.99
2017-07-27T22:29:37.570Z,99.99
2017-07-27T22:32:01.690Z,99.99
2017-07-27T22:34:17.277Z,99.99
2017-07-27T22:36:48.206Z,99.99
2017-07-27T22:39:03.824Z,99.99
2017-07-27T22:41:35.665Z,99.99
2017-07-27T22:43:42.837Z,99.99
2017-07-27T22:46:06.919Z,99.99
2017-07-27T22:48:30.980Z,99.99
2017-07-27T22:50:48.640Z,99.99
2017-07-27T22:53:12.733Z,99.99
2017-07-27T22:55:37.827Z,99.99
2017-07-27T22:58:02.934Z,99.99
2017-07-27T23:00:28.038Z,99.99
2017-07-27T23:02:53.142Z,99.99
2017-07-27T23:05:17.203Z,99.99
2017-07-27T23:07:42.334Z,99.99
2017-07-27T23:10:06.410Z,99.99
2017-07-27T23:14:06.144Z,99.99
2017-07-27T23:16:30.197Z,99.99
2017-07-27T23:18:45.824Z,99.99
2017-07-27T23:21:09.856Z,99.99
2017-07-27T23:23:19.765Z,99.99
2017-07-27T23:25:43.817Z,99.99
2017-07-27T23:28:07.831Z,99.99
2017-07-27T23:30:23.394Z,99.99
2017-07-27T23:32:47.374Z,99.99
2017-07-27T23:35:02.935Z,99.99
2017-07-27T23:37:26.907Z,99.99
2017-07-27T23:39:50.883Z,99.99
2017-07-27T23:43:50.573Z,99.99
2017-07-27T23:45:57.721Z,99.99
2017-07-27T23:48:21.717Z,99.99
2017-07-27T23:50:45.709Z,99.99
2017-07-27T23:53:09.644Z,99.99
2017-07-27T23:55:25.195Z,99.99
2017-07-27T23:57:40.761Z,99.99
